Airfield :
LOGIN :

Register | Disclaimer

   EN    FR    IT 

 










Legend :    VFR   Marginal VFR   IFR   Intensive IFR   Very Intensive IFR
Visi :
Ceiling :
>= 8 km
>= 3000ft
5 to 8 km
1000 to 3000 ft
1500m to 5 km
500 to 1000 ft
800 to 1500m
200 to 500 ft
< 800m
< 200 ft
Symbols :   Thunderstorms  Fog  Heavy snow  Heavy precipitations  Wind > 20 kt
SIGMETs :     Misc.  Thunderstorms  Icing  Turbulence  Mountain Waves  Volcanic Ashes







- Airport Elevation : 1273 ft
- IATA code : LJU


LJLJ - Ljubljana

CURRENT METAR :
  • 220300Z 23001KT 9999 FEW050 BKN240 15/14 Q1016 NOSIG

EXPIRED METARs :
  • 220230Z VRB01KT 9999 FEW050 BKN200 14/13 Q1016 NOSIG
  • 220200Z VRB01KT 9999 FEW050 BKN200 14/13 Q1016 NOSIG
  • 220130Z VRB02KT 9999 FEW050 BKN200 14/14 Q1015 NOSIG
  • 220100Z VRB02KT 9999 FEW050 BKN200 14/14 Q1015 NOSIG
  • 220030Z VRB01KT 9999 FEW050 BKN200 15/14 Q1015 NOSIG

TAF TAF LJLJ
Valid from the 22 at 03:00 until the 23 at 03:00 UTC


220200Z 2203/2303 27003KT 9999 BKN040
PROB40
TEMPO 2203/2207 VRB10G20KT 5000 TSRA BKN030CB
BECMG 2206/2209 11005KT 7000 -RA SCT010 OVC035
TEMPO 2208/2215 09010KT 3500 RA SCT005 OVC020
BECMG 2300/2303 NSW
No reported NOTAMs for that airfield.



MET'MAP, your aeronautical weather chart ! - Copyright ORBIFLY December 2007 - Disclaimer

ORBIFLY MET'MAP TEAM :

Programming & Development : Alexandra Zaïnal
Concept & Development : Baudouin d'Aumeries
Co-Development & Prog : Marc-Olivier Méhu
Technical & hardware support : Manuel Goepfert

Contact : metmap@orbifly.com




SOURCES & CREDITS :

   NOAA